createdAt,value
2022-12-18T00:00:21.400Z,99.61
2022-12-18T00:01:11.389Z,99.61
2022-12-18T00:02:01.418Z,99.18
2022-12-18T00:02:51.641Z,99.01
2022-12-18T00:03:41.720Z,98.80
2022-12-18T00:04:31.421Z,98.69
2022-12-18T00:05:21.346Z,98.80
2022-12-18T00:06:11.338Z,99.01
2022-12-18T00:07:01.337Z,99.12
2022-12-18T00:07:51.326Z,99.22
2022-12-18T00:08:41.308Z,99.44
2022-12-18T00:09:39.373Z,99.55
2022-12-18T00:10:22.287Z,99.55
2022-12-18T00:11:11.286Z,99.65
2022-12-18T00:12:52.266Z,99.65
2022-12-18T00:13:41.738Z,99.65
2022-12-18T00:14:31.250Z,99.55
2022-12-18T00:15:21.233Z,99.55
2022-12-18T00:16:11.276Z,99.76
2022-12-18T00:17:01.232Z,99.87
2022-12-18T00:17:51.213Z,99.99
2022-12-18T00:18:41.660Z,99.98
2022-12-18T00:19:31.194Z,99.87
2022-12-18T00:20:21.184Z,99.76
2022-12-18T00:21:11.181Z,99.76
2022-12-18T00:22:01.174Z,99.87
2022-12-18T00:22:51.163Z,99.87
2022-12-18T00:23:41.709Z,99.65
2022-12-18T00:24:31.143Z,99.48
2022-12-18T00:25:21.136Z,99.27
2022-12-18T00:26:11.130Z,99.27
2022-12-18T00:27:01.123Z,99.38
2022-12-18T00:27:51.290Z,99.69
2022-12-18T00:28:41.091Z,99.99
2022-12-18T00:29:31.092Z,99.99
2022-12-18T00:30:21.082Z,99.99
2022-12-18T00:31:11.147Z,99.99
2022-12-18T00:32:01.215Z,99.99
2022-12-18T00:32:51.061Z,99.99
2022-12-18T00:33:41.415Z,99.99
2022-12-18T00:34:31.040Z,99.99
2022-12-18T00:35:21.047Z,99.99
2022-12-18T00:36:11.020Z,99.99
2022-12-18T00:37:01.020Z,99.99
2022-12-18T00:37:51.008Z,99.99
2022-12-18T00:38:40.987Z,99.99
2022-12-18T00:39:30.979Z,99.99
2022-12-18T00:40:20.978Z,99.99
2022-12-18T00:41:11.077Z,99.99
2022-12-18T00:42:00.978Z,99.99
2022-12-18T00:42:50.946Z,99.99
2022-12-18T00:43:41.352Z,99.99
2022-12-18T00:44:30.928Z,99.99
2022-12-18T00:45:20.929Z,99.99
2022-12-18T00:46:11.016Z,99.99
2022-12-18T00:47:00.915Z,99.99
2022-12-18T00:47:50.895Z,99.99
2022-12-18T00:48:40.887Z,99.99
2022-12-18T00:49:30.874Z,99.99
2022-12-18T00:50:20.875Z,99.99
2022-12-18T00:51:11.305Z,99.99
2022-12-18T00:52:00.864Z,99.99
2022-12-18T00:52:50.882Z,99.99
2022-12-18T00:53:41.223Z,99.99
2022-12-18T00:54:30.905Z,99.99
2022-12-18T00:55:20.824Z,99.99
2022-12-18T00:56:11.019Z,99.99
2022-12-18T00:57:00.864Z,99.99
2022-12-18T00:57:50.791Z,99.99
2022-12-18T00:58:40.785Z,99.99
2022-12-18T00:59:30.773Z,99.99
2022-12-18T01:00:21.032Z,99.99
2022-12-18T01:01:10.794Z,99.99
2022-12-18T01:02:00.952Z,99.99
2022-12-18T01:02:50.953Z,99.99
2022-12-18T01:03:41.353Z,99.99
2022-12-18T01:04:30.709Z,99.99
2022-12-18T01:05:20.713Z,99.99
2022-12-18T01:06:10.702Z,99.99
2022-12-18T01:07:00.712Z,99.99
2022-12-18T01:07:50.690Z,99.99
2022-12-18T01:08:40.748Z,99.99
2022-12-18T01:09:30.670Z,99.99
2022-12-18T01:10:20.668Z,99.99
2022-12-18T01:11:10.647Z,99.99
2022-12-18T01:12:00.657Z,99.99
2022-12-18T01:12:50.629Z,99.99
2022-12-18T01:13:40.919Z,99.99
2022-12-18T01:14:30.609Z,99.99
2022-12-18T01:15:20.607Z,99.99
2022-12-18T01:16:10.621Z,99.99
2022-12-18T01:17:00.596Z,99.99
2022-12-18T01:17:50.819Z,99.99
2022-12-18T01:18:40.565Z,99.99
2022-12-18T01:19:30.556Z,99.99
2022-12-18T01:20:20.555Z,99.99
2022-12-18T01:21:10.655Z,99.99
2022-12-18T01:22:00.561Z,99.99
2022-12-18T01:22:50.583Z,99.99
2022-12-18T01:23:40.893Z,99.99
2022-12-18T01:24:30.503Z,99.99
2022-12-18T01:25:20.547Z,99.99
2022-12-18T01:26:10.485Z,99.99
2022-12-18T01:27:01.054Z,99.99
2022-12-18T01:27:50.462Z,99.99
2022-12-18T01:28:41.059Z,99.99
2022-12-18T01:29:30.450Z,99.99
2022-12-18T01:30:20.443Z,99.99
2022-12-18T01:31:10.446Z,99.99
2022-12-18T01:32:00.495Z,99.99
2022-12-18T01:32:50.421Z,99.99
2022-12-18T01:33:40.778Z,99.99
2022-12-18T01:34:30.399Z,99.99
2022-12-18T01:35:20.400Z,99.99
2022-12-18T01:36:10.389Z,99.99
2022-12-18T01:37:00.391Z,99.99
2022-12-18T01:37:50.401Z,99.99
2022-12-18T01:38:40.364Z,99.99
2022-12-18T01:39:30.394Z,99.99
2022-12-18T01:40:20.348Z,99.99
2022-12-18T01:41:10.330Z,99.99
2022-12-18T01:42:00.339Z,99.99
2022-12-18T01:42:50.309Z,99.99
2022-12-18T01:43:40.675Z,99.99
2022-12-18T01:44:30.295Z,99.99
2022-12-18T01:45:20.286Z,99.99
2022-12-18T01:46:10.669Z,99.99
2022-12-18T01:47:00.279Z,99.99
2022-12-18T01:47:50.359Z,99.99
2022-12-18T01:48:40.248Z,99.99
2022-12-18T01:49:30.236Z,99.99
2022-12-18T01:50:20.399Z,99.99
2022-12-18T01:51:10.215Z,99.99
2022-12-18T01:52:00.446Z,99.99
2022-12-18T01:52:50.195Z,99.99
2022-12-18T01:53:40.604Z,99.99
2022-12-18T01:54:30.184Z,99.99
2022-12-18T01:55:20.173Z,99.99
2022-12-18T01:56:10.242Z,99.99
2022-12-18T01:57:00.173Z,99.99
2022-12-18T01:57:50.147Z,99.99
2022-12-18T01:58:40.147Z,99.99
2022-12-18T01:59:30.283Z,99.99
2022-12-18T02:00:20.121Z,99.99
2022-12-18T02:01:10.223Z,99.99
2022-12-18T02:02:00.241Z,99.99
2022-12-18T02:02:50.301Z,99.99
2022-12-18T02:03:40.487Z,99.99
2022-12-18T02:04:30.084Z,99.99
2022-12-18T02:05:20.073Z,99.99
2022-12-18T02:06:10.067Z,99.99
2022-12-18T02:07:00.071Z,99.99
2022-12-18T02:07:50.041Z,99.99
2022-12-18T02:08:40.039Z,99.99
2022-12-18T02:09:30.051Z,99.99
2022-12-18T02:10:20.029Z,99.99
2022-12-18T02:11:10.002Z,99.99
2022-12-18T02:12:00.010Z,99.99
2022-12-18T02:12:49.989Z,99.99
2022-12-18T02:13:40.508Z,99.99
2022-12-18T02:14:29.969Z,99.99
2022-12-18T02:15:19.965Z,99.99
2022-12-18T02:16:09.966Z,99.99
2022-12-18T02:17:00.049Z,99.99
2022-12-18T02:17:49.936Z,99.99
2022-12-18T02:18:39.928Z,99.99
2022-12-18T02:19:29.916Z,99.99
2022-12-18T02:20:19.909Z,99.99
2022-12-18T02:21:09.895Z,99.99
2022-12-18T02:21:59.905Z,99.99
2022-12-18T02:22:49.877Z,99.99
2022-12-18T02:23:40.288Z,99.99
2022-12-18T02:24:29.867Z,99.99
2022-12-18T02:25:19.865Z,99.99
2022-12-18T02:26:09.844Z,99.99
2022-12-18T02:27:00.977Z,99.99
2022-12-18T02:27:49.838Z,99.99
2022-12-18T02:28:39.823Z,99.99
2022-12-18T02:29:29.813Z,99.99
2022-12-18T02:30:19.803Z,99.99
2022-12-18T02:31:09.868Z,99.99
2022-12-18T02:31:59.803Z,99.99
2022-12-18T02:32:49.775Z,99.99
2022-12-18T02:33:40.180Z,99.99
2022-12-18T02:34:29.760Z,99.99
2022-12-18T02:35:19.751Z,99.99
2022-12-18T02:36:09.740Z,99.99
2022-12-18T02:36:59.744Z,99.99
2022-12-18T02:37:49.720Z,99.99
2022-12-18T02:38:39.721Z,99.99
2022-12-18T02:39:29.700Z,99.99
2022-12-18T02:40:19.703Z,99.99
2022-12-18T02:41:09.691Z,99.99
2022-12-18T02:41:59.703Z,99.99
2022-12-18T02:42:49.667Z,99.99
2022-12-18T02:43:40.038Z,99.99
2022-12-18T02:44:29.652Z,99.99
2022-12-18T02:45:19.648Z,99.99
2022-12-18T02:46:09.664Z,99.99
2022-12-18T02:46:59.641Z,99.99
2022-12-18T02:47:49.630Z,99.99
2022-12-18T02:48:39.627Z,99.99
2022-12-18T02:49:29.596Z,99.99
2022-12-18T02:50:19.605Z,99.99
2022-12-18T02:51:09.577Z,99.99
2022-12-18T02:51:59.592Z,99.99
2022-12-18T02:52:49.561Z,99.99
2022-12-18T02:53:39.925Z,99.99
2022-12-18T02:54:29.548Z,99.99
2022-12-18T02:55:19.538Z,99.99
2022-12-18T02:56:09.528Z,99.99
2022-12-18T02:56:59.536Z,99.99
2022-12-18T02:57:49.506Z,99.99
2022-12-18T02:58:39.506Z,99.99
2022-12-18T02:59:29.485Z,99.99
2022-12-18T03:00:19.496Z,99.99
2022-12-18T03:01:09.577Z,99.99
2022-12-18T03:01:59.698Z,99.99
2022-12-18T03:02:49.624Z,99.99
2022-12-18T03:03:39.683Z,99.99
2022-12-18T03:04:29.433Z,99.99
2022-12-18T03:05:19.431Z,99.99
2022-12-18T03:06:09.432Z,99.99
2022-12-18T03:06:59.432Z,99.99
2022-12-18T03:07:49.403Z,99.99
2022-12-18T03:08:39.402Z,99.99
2022-12-18T03:09:29.382Z,99.99
2022-12-18T03:10:19.383Z,99.99
2022-12-18T03:11:09.373Z,99.99
2022-12-18T03:11:59.384Z,99.99
2022-12-18T03:12:49.350Z,99.99
2022-12-18T03:13:39.752Z,99.99
2022-12-18T03:14:29.330Z,99.99
2022-12-18T03:15:19.334Z,99.99
2022-12-18T03:16:09.310Z,99.99
2022-12-18T03:16:59.401Z,99.99
2022-12-18T03:17:49.312Z,99.99
2022-12-18T03:18:39.283Z,99.99
2022-12-18T03:19:29.305Z,99.99
2022-12-18T03:20:19.282Z,99.99
2022-12-18T03:21:09.259Z,99.99
2022-12-18T03:21:59.278Z,99.99
2022-12-18T03:22:49.247Z,99.99
2022-12-18T03:23:39.572Z,99.99
2022-12-18T03:24:29.227Z,99.99
2022-12-18T03:25:19.220Z,99.99
2022-12-18T03:26:09.208Z,99.99
2022-12-18T03:26:59.207Z,99.99
2022-12-18T03:27:49.316Z,99.99
2022-12-18T03:28:39.190Z,99.99
2022-12-18T03:29:29.173Z,99.99
2022-12-18T03:30:19.166Z,99.99
2022-12-18T03:31:09.312Z,99.99
2022-12-18T03:31:59.195Z,99.99
2022-12-18T03:32:49.145Z,99.99
2022-12-18T03:33:39.538Z,99.99
2022-12-18T03:34:29.118Z,99.99
2022-12-18T03:35:19.105Z,99.99
2022-12-18T03:36:09.096Z,99.99
2022-12-18T03:36:59.114Z,99.99
2022-12-18T03:37:49.114Z,99.99
2022-12-18T03:38:39.076Z,99.99
2022-12-18T03:39:29.084Z,99.99
2022-12-18T03:40:19.057Z,99.99
2022-12-18T03:41:09.045Z,99.99
2022-12-18T03:41:59.062Z,99.99
2022-12-18T03:42:49.026Z,99.99
2022-12-18T03:43:39.352Z,99.99
2022-12-18T03:44:29.007Z,99.99
2022-12-18T03:45:19.008Z,99.99
2022-12-18T03:46:09.070Z,99.99
2022-12-18T03:46:59.010Z,99.99
2022-12-18T03:47:48.972Z,99.99
2022-12-18T03:48:38.963Z,99.99
2022-12-18T03:49:28.952Z,99.99
2022-12-18T03:50:18.953Z,99.99
2022-12-18T03:51:08.941Z,99.99
2022-12-18T03:51:58.952Z,99.99
2022-12-18T03:52:48.921Z,99.99
2022-12-18T03:53:39.340Z,99.99
2022-12-18T03:54:28.929Z,99.99
2022-12-18T03:55:18.909Z,99.99
2022-12-18T03:56:08.884Z,99.99
2022-12-18T03:56:58.903Z,99.99
2022-12-18T03:57:48.867Z,99.99
2022-12-18T03:58:38.866Z,99.99
2022-12-18T03:59:28.851Z,99.99
2022-12-18T04:00:18.844Z,99.99
2022-12-18T04:01:08.920Z,99.99
2022-12-18T04:01:58.940Z,99.99
2022-12-18T04:02:48.919Z,99.99
2022-12-18T04:03:39.172Z,99.99
2022-12-18T04:04:28.801Z,99.99
2022-12-18T04:05:18.799Z,99.99
2022-12-18T04:06:08.776Z,99.99
2022-12-18T04:06:58.795Z,99.99
2022-12-18T04:07:48.759Z,99.99
2022-12-18T04:08:38.761Z,99.99
2022-12-18T04:09:28.740Z,99.99
2022-12-18T04:10:18.737Z,99.99
2022-12-18T04:11:08.726Z,99.99
2022-12-18T04:11:58.728Z,99.99
2022-12-18T04:12:48.719Z,99.99
2022-12-18T04:13:39.051Z,99.99
2022-12-18T04:14:28.697Z,99.99
2022-12-18T04:15:18.683Z,99.99
2022-12-18T04:16:08.704Z,99.99
2022-12-18T04:16:58.674Z,99.99
2022-12-18T04:17:48.657Z,99.99
2022-12-18T04:18:38.647Z,99.99
2022-12-18T04:19:28.643Z,99.99
2022-12-18T04:20:18.649Z,99.99
2022-12-18T04:21:08.633Z,99.99
2022-12-18T04:21:58.624Z,99.99
2022-12-18T04:22:48.695Z,99.99
2022-12-18T04:23:38.918Z,99.99
2022-12-18T04:24:28.584Z,99.99
2022-12-18T04:25:18.575Z,99.99
2022-12-18T04:26:08.598Z,99.99
2022-12-18T04:26:58.578Z,99.99
2022-12-18T04:27:48.549Z,99.99
2022-12-18T04:28:38.541Z,99.99
2022-12-18T04:29:28.535Z,99.99
2022-12-18T04:30:18.513Z,99.99
2022-12-18T04:31:08.595Z,99.99
2022-12-18T04:31:58.517Z,99.99
2022-12-18T04:32:52.231Z,99.99
2022-12-18T04:33:38.940Z,99.99
2022-12-18T04:34:28.488Z,99.99
2022-12-18T04:35:18.459Z,99.99
2022-12-18T04:36:08.458Z,99.99
2022-12-18T04:36:58.462Z,99.99
2022-12-18T04:37:48.445Z,99.99
2022-12-18T04:38:38.433Z,99.99
2022-12-18T04:39:28.430Z,99.99
2022-12-18T04:40:18.412Z,99.99
2022-12-18T04:41:08.420Z,99.99
2022-12-18T04:41:58.417Z,99.99
2022-12-18T04:42:48.431Z,99.99
2022-12-18T04:43:38.822Z,99.99
2022-12-18T04:44:28.369Z,99.99
2022-12-18T04:45:18.366Z,99.99
2022-12-18T04:46:08.378Z,99.99
2022-12-18T04:46:58.360Z,99.99
2022-12-18T04:47:48.327Z,99.99
2022-12-18T04:48:38.318Z,99.99
2022-12-18T04:49:28.315Z,99.99
2022-12-18T04:50:18.306Z,99.99
2022-12-18T04:51:08.298Z,99.99
2022-12-18T04:51:58.296Z,99.99
2022-12-18T04:52:48.274Z,99.99
2022-12-18T04:53:38.761Z,99.99
2022-12-18T04:54:28.256Z,99.99
2022-12-18T04:55:18.243Z,99.99
2022-12-18T04:56:08.247Z,99.99
2022-12-18T04:56:58.242Z,99.99
2022-12-18T04:57:48.225Z,99.99
2022-12-18T04:58:38.214Z,99.99
2022-12-18T04:59:28.203Z,99.99
2022-12-18T05:00:18.198Z,99.99
2022-12-18T05:01:08.194Z,99.99
2022-12-18T05:01:58.332Z,99.99
2022-12-18T05:02:48.350Z,99.99
2022-12-18T05:03:38.635Z,99.99
2022-12-18T05:04:28.150Z,99.99
2022-12-18T05:05:18.139Z,99.99
2022-12-18T05:06:08.138Z,99.99
2022-12-18T05:06:58.130Z,99.99
2022-12-18T05:07:48.120Z,99.99
2022-12-18T05:08:38.125Z,99.99
2022-12-18T05:09:28.101Z,99.99
2022-12-18T05:10:18.082Z,99.99
2022-12-18T05:11:08.079Z,99.99
2022-12-18T05:11:58.081Z,99.99
2022-12-18T05:12:48.061Z,99.99
2022-12-18T05:13:38.375Z,99.99
2022-12-18T05:14:28.040Z,99.99
2022-12-18T05:15:18.066Z,99.99
2022-12-18T05:16:08.072Z,99.99
2022-12-18T05:17:01.003Z,99.99
2022-12-18T05:17:48.009Z,99.99
2022-12-18T05:18:37.993Z,99.99
2022-12-18T05:19:27.999Z,99.99
2022-12-18T05:20:17.978Z,99.99
2022-12-18T05:21:07.979Z,99.99
2022-12-18T05:21:57.976Z,99.99
2022-12-18T05:22:47.961Z,99.99
2022-12-18T05:23:38.264Z,99.99
2022-12-18T05:24:27.935Z,99.99
2022-12-18T05:25:17.925Z,99.99
2022-12-18T05:26:07.925Z,99.99
2022-12-18T05:26:57.919Z,99.99
2022-12-18T05:27:47.895Z,99.99
2022-12-18T05:28:37.888Z,99.99
2022-12-18T05:29:27.883Z,99.99
2022-12-18T05:30:17.878Z,99.99
2022-12-18T05:31:07.940Z,99.99
2022-12-18T05:31:57.913Z,99.99
2022-12-18T05:32:47.888Z,99.99
2022-12-18T05:33:38.298Z,99.99
2022-12-18T05:34:27.864Z,99.99
2022-12-18T05:35:17.814Z,99.99
2022-12-18T05:36:07.819Z,99.99
2022-12-18T05:36:57.853Z,99.99
2022-12-18T05:37:47.798Z,99.99
2022-12-18T05:38:37.784Z,99.99
2022-12-18T05:39:27.785Z,99.99
2022-12-18T05:40:17.754Z,99.99
2022-12-18T05:41:07.761Z,99.99
2022-12-18T05:41:57.753Z,99.99
2022-12-18T05:42:47.734Z,99.99
2022-12-18T05:43:38.121Z,99.99
2022-12-18T05:44:27.735Z,99.99
2022-12-18T05:45:17.720Z,99.99
2022-12-18T05:46:07.792Z,99.99
2022-12-18T05:46:57.765Z,99.99
2022-12-18T05:47:47.680Z,99.99
2022-12-18T05:48:37.685Z,99.99
2022-12-18T05:49:27.667Z,99.99
2022-12-18T05:50:17.649Z,99.99
2022-12-18T05:51:07.654Z,99.99
2022-12-18T05:51:57.650Z,99.99
2022-12-18T05:52:47.629Z,99.99
2022-12-18T05:53:38.048Z,99.99
2022-12-18T05:54:27.608Z,99.99
2022-12-18T05:55:17.598Z,99.99
2022-12-18T05:56:07.597Z,99.99
2022-12-18T05:56:57.596Z,99.99
2022-12-18T05:57:47.581Z,99.99
2022-12-18T05:58:37.574Z,99.99
2022-12-18T05:59:27.565Z,99.99
2022-12-18T06:00:17.560Z,99.99
2022-12-18T06:01:07.564Z,99.99
2022-12-18T06:01:57.658Z,99.99
2022-12-18T06:02:47.700Z,99.99
2022-12-18T06:03:37.525Z,99.99
2022-12-18T06:04:27.507Z,99.99
2022-12-18T06:05:17.486Z,99.99
2022-12-18T06:06:07.485Z,99.99
2022-12-18T06:06:57.492Z,99.99
2022-12-18T06:07:47.473Z,99.99
2022-12-18T06:08:41.468Z,99.99
2022-12-18T06:09:28.444Z,99.99
2022-12-18T06:10:17.492Z,99.99
2022-12-18T06:11:07.442Z,99.99
2022-12-18T06:11:57.432Z,99.99
2022-12-18T06:12:47.423Z,99.99
2022-12-18T06:13:37.783Z,99.99
2022-12-18T06:14:27.411Z,99.99
2022-12-18T06:15:17.381Z,99.99
2022-12-18T06:16:07.410Z,99.99
2022-12-18T06:16:57.385Z,99.99
2022-12-18T06:17:47.362Z,99.99
2022-12-18T06:18:37.373Z,99.99
2022-12-18T06:19:27.344Z,99.99
2022-12-18T06:20:17.331Z,99.99
2022-12-18T06:21:07.330Z,99.99
2022-12-18T06:21:57.332Z,99.99
2022-12-18T06:22:47.306Z,99.99
2022-12-18T06:23:37.699Z,99.99
2022-12-18T06:24:27.290Z,99.99
2022-12-18T06:25:17.269Z,99.99
2022-12-18T06:26:07.278Z,99.99
2022-12-18T06:26:57.300Z,99.99
2022-12-18T06:27:47.261Z,99.99
2022-12-18T06:28:37.235Z,99.99
2022-12-18T06:29:27.237Z,99.99
2022-12-18T06:30:17.262Z,99.99
2022-12-18T06:31:07.293Z,99.99
2022-12-18T06:31:57.249Z,99.99
2022-12-18T06:32:50.486Z,99.99
2022-12-18T06:33:38.746Z,99.99
2022-12-18T06:34:27.185Z,99.99
2022-12-18T06:35:17.181Z,99.99
2022-12-18T06:36:07.168Z,99.99
2022-12-18T06:36:57.158Z,99.99
2022-12-18T06:37:47.147Z,99.99
2022-12-18T06:38:37.537Z,99.99
2022-12-18T06:39:27.127Z,99.99
2022-12-18T06:40:17.118Z,99.99
2022-12-18T06:41:07.108Z,99.99
2022-12-18T06:41:57.125Z,99.99
2022-12-18T06:42:47.085Z,99.99
2022-12-18T06:43:37.417Z,99.99
2022-12-18T06:44:27.093Z,99.99
2022-12-18T06:45:17.078Z,99.99
2022-12-18T06:46:07.122Z,99.99
2022-12-18T06:46:57.056Z,99.99
2022-12-18T06:47:47.044Z,99.99
2022-12-18T06:48:37.037Z,99.99
2022-12-18T06:49:30.411Z,99.99
2022-12-18T06:50:17.004Z,99.99
2022-12-18T06:51:07.004Z,99.99
2022-12-18T06:51:57.007Z,99.99
2022-12-18T06:52:46.982Z,99.99
2022-12-18T06:53:37.282Z,99.99
2022-12-18T06:54:26.973Z,99.99
2022-12-18T06:55:16.952Z,99.99
2022-12-18T06:56:10.321Z,99.99
2022-12-18T06:56:56.953Z,99.99
2022-12-18T06:57:46.941Z,99.99
2022-12-18T06:58:36.922Z,99.99
2022-12-18T06:59:26.911Z,99.99
2022-12-18T07:00:16.900Z,99.99
2022-12-18T07:01:06.980Z,99.99
2022-12-18T07:01:57.110Z,99.99
2022-12-18T07:02:46.979Z,99.99
2022-12-18T07:03:37.295Z,99.99
2022-12-18T07:04:26.858Z,99.99
2022-12-18T07:05:16.851Z,99.99
2022-12-18T07:06:06.850Z,99.99
2022-12-18T07:06:56.840Z,99.99
2022-12-18T07:07:46.820Z,99.99
2022-12-18T07:08:36.843Z,99.99
2022-12-18T07:09:26.823Z,99.99
2022-12-18T07:10:16.804Z,99.99
2022-12-18T07:11:06.781Z,99.99
2022-12-18T07:11:56.786Z,99.99
2022-12-18T07:12:46.776Z,99.99
2022-12-18T07:13:37.021Z,99.99
2022-12-18T07:14:26.748Z,99.99
2022-12-18T07:15:16.741Z,99.99
2022-12-18T07:16:09.783Z,99.99
2022-12-18T07:16:57.819Z,99.99
2022-12-18T07:17:46.717Z,99.99
2022-12-18T07:18:36.697Z,99.99
2022-12-18T07:19:26.697Z,99.99
2022-12-18T07:20:16.717Z,99.99
2022-12-18T07:21:06.679Z,99.99
2022-12-18T07:21:56.685Z,99.99
2022-12-18T07:22:46.829Z,99.99
2022-12-18T07:23:36.742Z,99.99
2022-12-18T07:24:26.650Z,99.99
2022-12-18T07:25:16.634Z,99.99
2022-12-18T07:26:06.625Z,99.99
2022-12-18T07:26:56.624Z,99.99
2022-12-18T07:27:46.606Z,99.99
2022-12-18T07:28:36.629Z,99.99
2022-12-18T07:29:26.611Z,99.99
2022-12-18T07:30:16.588Z,99.99
2022-12-18T07:31:06.566Z,99.99
2022-12-18T07:31:56.661Z,99.99
2022-12-18T07:32:46.554Z,99.99
2022-12-18T07:33:36.884Z,99.99
2022-12-18T07:34:26.533Z,99.99
2022-12-18T07:35:18.378Z,99.99
2022-12-18T07:36:07.513Z,99.99
2022-12-18T07:36:56.528Z,99.99
2022-12-18T07:37:46.504Z,99.99
2022-12-18T07:38:36.503Z,99.99
2022-12-18T07:39:26.482Z,99.99
2022-12-18T07:40:16.471Z,99.99
2022-12-18T07:41:06.787Z,99.99
2022-12-18T07:41:56.460Z,99.99
2022-12-18T07:42:46.439Z,99.99
2022-12-18T07:43:36.691Z,99.99
2022-12-18T07:44:26.430Z,99.99
2022-12-18T07:45:16.428Z,99.99
2022-12-18T07:46:06.456Z,99.99
2022-12-18T07:46:56.434Z,99.99
2022-12-18T07:47:46.387Z,99.99
2022-12-18T07:48:36.387Z,99.99
2022-12-18T07:49:26.415Z,99.99
2022-12-18T07:50:16.368Z,99.99
2022-12-18T07:51:06.358Z,99.99
2022-12-18T07:51:56.362Z,99.99
2022-12-18T07:52:46.337Z,99.99
2022-12-18T07:53:36.542Z,99.99
2022-12-18T07:54:26.318Z,99.99
2022-12-18T07:55:16.334Z,99.99
2022-12-18T07:56:26.719Z,99.99
2022-12-18T07:56:57.306Z,99.99
2022-12-18T07:57:51.246Z,99.99
2022-12-18T07:58:37.295Z,99.99
2022-12-18T07:59:26.265Z,99.99
2022-12-18T08:00:16.259Z,99.99
2022-12-18T08:01:06.275Z,99.99
2022-12-18T08:01:56.491Z,99.99
2022-12-18T08:02:46.455Z,99.99
2022-12-18T08:03:36.250Z,99.99
2022-12-18T08:04:26.204Z,99.99
2022-12-18T08:05:16.202Z,99.99
2022-12-18T08:06:06.206Z,99.99
2022-12-18T08:06:56.202Z,99.99
2022-12-18T08:07:46.178Z,99.99
2022-12-18T08:08:36.172Z,99.99
2022-12-18T08:09:26.151Z,99.99
2022-12-18T08:10:16.151Z,99.99
2022-12-18T08:11:06.209Z,99.99
2022-12-18T08:11:56.157Z,99.99
2022-12-18T08:12:46.119Z,99.99
2022-12-18T08:13:36.304Z,99.99
2022-12-18T08:14:26.097Z,99.99
2022-12-18T08:15:16.142Z,99.99
2022-12-18T08:16:06.082Z,99.99
2022-12-18T08:16:56.143Z,99.99
2022-12-18T08:17:46.063Z,99.99
2022-12-18T08:18:36.066Z,99.99
2022-12-18T08:19:26.049Z,99.99
2022-12-18T08:20:16.038Z,99.99
2022-12-18T08:21:06.039Z,99.99
2022-12-18T08:21:56.038Z,99.99
2022-12-18T08:22:46.009Z,99.99
2022-12-18T08:23:42.080Z,99.99
2022-12-18T08:24:27.021Z,99.99
2022-12-18T08:25:15.984Z,99.99
2022-12-18T08:26:05.975Z,99.99
2022-12-18T08:27:27.900Z,99.99
2022-12-18T08:27:46.995Z,99.99
2022-12-18T08:28:35.951Z,99.99
2022-12-18T08:29:25.943Z,99.99
2022-12-18T08:30:15.939Z,99.99
2022-12-18T08:31:05.984Z,99.99
2022-12-18T08:31:55.984Z,99.99
2022-12-18T08:32:45.906Z,99.99
2022-12-18T08:33:35.897Z,99.99
2022-12-18T08:34:25.892Z,99.99
2022-12-18T08:35:18.712Z,99.99
2022-12-18T08:36:05.879Z,99.99
2022-12-18T08:36:55.887Z,99.99
2022-12-18T08:37:45.861Z,99.99
2022-12-18T08:38:35.850Z,99.99
2022-12-18T08:39:25.827Z,99.99
2022-12-18T08:40:15.852Z,99.99
2022-12-18T08:41:05.813Z,99.99
2022-12-18T08:41:55.824Z,99.99
2022-12-18T08:42:45.812Z,99.99
2022-12-18T08:43:35.794Z,99.99
2022-12-18T08:44:25.778Z,99.99
2022-12-18T08:45:15.782Z,99.99
2022-12-18T08:46:05.801Z,99.99
2022-12-18T08:46:55.774Z,99.99
2022-12-18T08:47:45.742Z,99.99
2022-12-18T08:48:35.764Z,99.99
2022-12-18T08:49:25.732Z,99.99
2022-12-18T08:50:15.713Z,99.99
2022-12-18T08:51:05.702Z,99.99
2022-12-18T08:51:55.734Z,99.99
2022-12-18T08:52:45.691Z,99.99
2022-12-18T08:53:35.980Z,99.99
2022-12-18T08:54:25.674Z,99.99
2022-12-18T08:55:15.694Z,99.99
2022-12-18T08:56:05.651Z,99.99
2022-12-18T08:56:55.659Z,99.99
2022-12-18T08:57:45.637Z,99.99
2022-12-18T08:58:35.633Z,99.99
2022-12-18T08:59:25.615Z,99.99
2022-12-18T09:00:15.611Z,99.99
2022-12-18T09:01:05.633Z,99.99
2022-12-18T09:01:55.731Z,99.99
2022-12-18T09:02:45.707Z,99.99
2022-12-18T09:03:35.613Z,99.99
2022-12-18T09:04:25.558Z,99.99
2022-12-18T09:05:15.558Z,99.99
2022-12-18T09:06:05.580Z,99.99
2022-12-18T09:06:55.547Z,99.99
2022-12-18T09:07:45.527Z,99.99
2022-12-18T09:08:35.517Z,99.99
2022-12-18T09:09:25.534Z,99.99
2022-12-18T09:10:15.508Z,99.99
2022-12-18T09:11:05.511Z,99.99
2022-12-18T09:11:55.505Z,99.99
2022-12-18T09:12:45.473Z,99.99
2022-12-18T09:13:35.473Z,99.99
2022-12-18T09:14:25.473Z,99.99
2022-12-18T09:15:15.457Z,99.99
2022-12-18T09:16:05.437Z,99.99
2022-12-18T09:16:55.497Z,99.99
2022-12-18T09:17:45.429Z,99.99
2022-12-18T09:18:35.412Z,99.99
2022-12-18T09:19:25.394Z,99.99
2022-12-18T09:20:15.424Z,99.99
2022-12-18T09:21:05.382Z,99.99
2022-12-18T09:21:55.400Z,99.99
2022-12-18T09:22:45.462Z,99.99
2022-12-18T09:23:35.352Z,99.99
2022-12-18T09:24:25.341Z,99.99
2022-12-18T09:25:15.381Z,99.99
2022-12-18T09:26:05.321Z,99.99
2022-12-18T09:26:57.884Z,99.99
2022-12-18T09:27:45.320Z,99.99
2022-12-18T09:28:35.301Z,99.99
2022-12-18T09:29:25.338Z,99.99
2022-12-18T09:30:15.291Z,99.99
2022-12-18T09:31:05.319Z,99.99
2022-12-18T09:31:55.282Z,99.99
2022-12-18T09:32:45.254Z,99.99
2022-12-18T09:33:35.251Z,99.99
2022-12-18T09:34:25.242Z,99.99
2022-12-18T09:35:15.236Z,99.99
2022-12-18T09:36:05.219Z,99.99
2022-12-18T09:36:55.232Z,99.99
2022-12-18T09:37:45.206Z,99.99
2022-12-18T09:38:35.247Z,99.99
2022-12-18T09:39:25.177Z,99.99
2022-12-18T09:40:15.178Z,99.99
2022-12-18T09:41:05.161Z,99.99
2022-12-18T09:41:55.189Z,99.99
2022-12-18T09:42:45.150Z,99.99
2022-12-18T09:43:35.148Z,99.99
2022-12-18T09:44:25.162Z,99.99
2022-12-18T09:45:15.173Z,99.99
2022-12-18T09:46:05.145Z,99.99
2022-12-18T09:46:55.164Z,99.99
2022-12-18T09:47:45.094Z,99.99
2022-12-18T09:48:35.096Z,99.99
2022-12-18T09:49:25.077Z,99.99
2022-12-18T09:50:17.421Z,99.99
2022-12-18T09:51:05.084Z,99.99
2022-12-18T09:51:55.074Z,99.99
2022-12-18T09:52:45.043Z,99.99
2022-12-18T09:53:35.048Z,99.99
2022-12-18T09:54:25.023Z,99.99
2022-12-18T09:55:15.023Z,99.99
2022-12-18T09:56:05.004Z,99.99
2022-12-18T09:56:55.015Z,99.99
2022-12-18T09:57:44.983Z,99.99
2022-12-18T09:58:34.982Z,99.99
2022-12-18T09:59:24.965Z,99.99
2022-12-18T10:00:14.970Z,99.99
2022-12-18T10:01:05.070Z,99.99
2022-12-18T10:01:55.042Z,99.99
2022-12-18T10:02:45.108Z,99.99
2022-12-18T10:03:34.942Z,99.99
2022-12-18T10:04:24.938Z,99.99
2022-12-18T10:05:14.908Z,99.99
2022-12-18T10:06:04.902Z,99.99
2022-12-18T10:06:54.910Z,99.99
2022-12-18T10:07:44.879Z,99.99
2022-12-18T10:08:34.888Z,99.99
2022-12-18T10:09:24.857Z,99.99
2022-12-18T10:10:14.866Z,99.99
2022-12-18T10:11:04.849Z,99.99
2022-12-18T10:11:54.861Z,99.99
2022-12-18T10:12:44.831Z,99.99
2022-12-18T10:13:34.818Z,99.99
2022-12-18T10:14:24.809Z,99.99
2022-12-18T10:15:14.826Z,99.99
2022-12-18T10:16:04.838Z,99.99
2022-12-18T10:16:54.943Z,99.99
2022-12-18T10:17:44.774Z,99.99
2022-12-18T10:18:34.763Z,99.99
2022-12-18T10:19:24.745Z,99.99
2022-12-18T10:20:14.746Z,99.99
2022-12-18T10:21:04.729Z,99.99
2022-12-18T10:21:54.738Z,99.99
2022-12-18T10:22:44.747Z,99.99
2022-12-18T10:23:34.706Z,99.99
2022-12-18T10:24:24.694Z,99.99
2022-12-18T10:25:14.708Z,99.99
2022-12-18T10:26:04.678Z,99.99
2022-12-18T10:26:54.696Z,99.99
2022-12-18T10:27:44.667Z,99.99
2022-12-18T10:28:34.654Z,99.99
2022-12-18T10:29:24.656Z,99.99
2022-12-18T10:30:14.636Z,99.99
2022-12-18T10:31:04.666Z,99.99
2022-12-18T10:31:54.644Z,99.99
2022-12-18T10:32:44.614Z,99.99
2022-12-18T10:33:34.593Z,99.99
2022-12-18T10:34:24.586Z,99.99
2022-12-18T10:35:14.604Z,99.99
2022-12-18T10:36:04.577Z,99.99
2022-12-18T10:36:54.584Z,99.99
2022-12-18T10:37:44.574Z,99.99
2022-12-18T10:38:34.553Z,99.99
2022-12-18T10:39:24.532Z,99.99
2022-12-18T10:40:21.516Z,99.99
2022-12-18T10:41:05.535Z,99.99
2022-12-18T10:41:54.545Z,99.99
2022-12-18T10:42:44.507Z,99.99
2022-12-18T10:43:34.491Z,99.99
2022-12-18T10:44:24.482Z,99.99